Lucien, Oklahoma
Current Conditions -  °F | °C
As of 7:50 AM on Sunday 25 Jan 2015 (Local Time) from KWDG Reporting Station
Clear Clear  
Wind Chill: 39°   Ceiling: Unl
Heat Index: 46°   Visibility: 10mi
Dew Point: 30°   Wind: 21mph
Humidity: 53%   Direction: 300°WNW
Pressure: 29.95"   Gusts: 29mph
Location:  36.27°N, 97.46°W
Report Text: KWDG 251350Z 30018G25KT 10SM SKC 08/M01 A2995
Loading
Personal Weather Stations






























Interactive Weather Map New forecast layout! Learn more

10-Day Weather Forecast

Advertisements
Track Severe Weather on mobile